Flight Track Log - Related Links

Times and Time Zones

All times are in EDT time to prevent confusion due to time zone crossing. See the N6GD flight status page for this flight to view local times or setup timezone preferences in your user account.

Time Position Orientation Groundspeed Altitude Reporting Facility
EDT Latitude Longitude Course Direction KTS MPH feet Rate Location/Type
Sat 12:18:43 PM 25.5706 -76.8289 301° West 270 311 8,900  Level Miami Center
Sat 12:19:46 PM 25.5853 -76.9244 280° West 295 339 11,500 2,352 Climbing Miami Center
Sat 12:20:48 PM 25.6278 -77.0014 302° West 312 359 13,800 2,226 Climbing Miami Center
Sat 12:21:50 PM 25.7022 -77.0519 329° Northwest 317 365 16,100 1,984 Climbing Miami Center
Sat 12:22:52 PM 25.7919 -77.1136 328° Northwest 337 388 17,900 1,776 Climbing Miami Center
Sat 12:23:00 PM 25.7680 -77.2357 301° West  Level FlightAware Approximate
Sat 12:23:55 PM 25.8611 -77.1978 312° West 362 417 19,800  Level Miami Center
Sat 12:24:00 PM 25.8195 -77.3299 301° West  Level FlightAware Approximate
Sat 12:24:57 PM 25.9042 -77.3200 291° West 382 440 21,800  Level Miami Center
Sat 12:25:59 PM 25.9433 -77.4319 291° West 386 444 23,600 1,584 Climbing Miami Center
Sat 12:27:02 PM 25.9831 -77.5475 291° West 397 457 25,100 1,680 Climbing Miami Center
Sat 12:28:04 PM 26.0267 -77.6778 290° West 406 467 27,100 1,984 Climbing Miami Center
Sat 12:29:06 PM 26.0658 -77.7933 291° West 404 465 29,200 1,968 Climbing Miami Center
Sat 12:30:09 PM 26.1036 -77.9075 290° West 399 459 31,200 2,112 Climbing Miami Center
Sat 12:31:11 PM 26.1469 -78.0322 291° West 396 456 33,600 1,355 Climbing Miami Center
Sat 12:32:13 PM 26.1847 -78.1503 290° West 405 466 34,000 192 Climbing Miami Center
Sat 12:33:16 PM 26.2278 -78.2753 291° West 435 501 34,000  Level Miami Center
Sat 12:34:18 PM 26.2753 -78.4217 290° West 454 522 34,000  Level Miami Center
Sat 12:35:20 PM 26.3147 -78.5553 288° West 455 524 34,000  Level Miami Center
Sat 12:36:22 PM 26.3408 -78.6861 283° West 453 521 34,000 -48 Level Miami Center
Sat 12:37:25 PM 26.3692 -78.8222 283° West 454 522 33,900 -480 Descending Miami Center
Sat 12:38:27 PM 26.4103 -78.9564 289° West 457 526 33,000 -919 Descending Miami Center
Sat 12:39:29 PM 26.4689 -79.1197 292° West 462 532 32,000 -480 Descending Miami Center
Sat 12:40:32 PM 26.5114 -79.2486 290° West 461 531 32,000  Level Miami Center
Sat 12:41:34 PM 26.5556 -79.3806 291° West 456 525 32,000  Level Miami Center
Sat 12:42:36 PM 26.6006 -79.5111 291° West 453 521 32,000  Level Miami Center
Sat 12:43:39 PM 26.6531 -79.6686 290° West 454 522 32,000  Level Miami Center
Sat 12:44:41 PM 26.6975 -79.8006 291° West 456 525 32,000  Level Miami Center
Sat 12:45:43 PM 26.7467 -79.9486 290° West 461 531 32,000  Level Miami Center
Sat 12:46:46 PM 26.7922 -80.0858 290° West 469 540 32,000  Level Miami Center
Sat 12:47:48 PM 26.8339 -80.2128 290° West 470 541 32,000  Level Miami Center
Sat 12:48:50 PM 26.8783 -80.3458 291° West 463 533 32,000  Level Miami Center
Sat 12:49:53 PM 26.9294 -80.5044 290° West 453 521 32,000  Level Miami Center
Sat 12:50:55 PM 26.9728 -80.6356 290° West 449 517 32,000  Level Miami Center
Sat 12:51:57 PM 27.0147 -80.7664 290° West 449 517 32,000  Level Miami Center
Sat 12:53:00 PM 27.0569 -80.8969 290° West 447 514 32,000 -384 Level Miami Center
Sat 12:54:02 PM 27.0992 -81.0250 290° West 439 505 31,200 -1,694 Descending Miami Center
Sat 12:55:04 PM 27.1442 -81.1669 290° West 408 470 28,500 -2,661 Descending Miami Center
Sat 12:56:06 PM 27.1856 -81.2836 292° West 406 467 25,700 -2,496 Descending Miami Center
Sat 12:57:09 PM 27.2392 -81.4047 296° West 405 466 23,300 -2,256 Descending Miami Center
Sat 12:58:11 PM 27.2828 -81.5264 292° West 404 465 21,000 -2,323 Descending Miami Center
Sat 12:59:13 PM 27.3164 -81.6506 287° West 398 458 18,500 -1,824 Descending Miami Center
Sat 01:00:16 PM 27.3347 -81.7467 282° West 378 435 17,200 -1,680 Descending Miami Center
Sat 01:01:18 PM 27.3681 -81.8675 287° West 337 388 15,000 -2,371 Descending Miami Center
Sat 01:02:20 PM 27.4014 -81.9756 289° West 359 413 12,300 -1,984 Descending Miami Center
Sat 01:03:22 PM 27.4322 -82.0792 289° West 348 400 10,900 -629 Descending Miami Center
Sat 01:04:24 PM 27.4650 -82.1542 296° West 264 304 11,000 48 Climbing Miami Center
Sat 01:05:27 PM 27.5114 -82.2139 311° West 253 291 11,000 -672 Level Miami Center
Sat 01:06:29 PM 27.5561 -82.2797 307° West 259 298 9,600 -1,548 Descending Miami Center
Sat 01:07:31 PM 27.6128 -82.3386 317° Northwest 272 313 7,800 -1,258 Descending Miami Center
Sat 01:08:33 PM 27.6781 -82.4025 319° Northwest 252 290 7,000 -387 Descending Miami Center
Sat 01:09:35 PM 27.7450 -82.4214 346° North 254 292 7,000 -194 Level Miami Center
Sat 01:10:37 PM 27.8217 -82.4192 North 269 310 6,600 -912 Descending Miami Center
Sat 01:11:40 PM 27.8958 -82.4172 North 268 308 5,100 -768 Descending Miami Center
Sat 01:12:42 PM 27.9669 -82.4158 North 257 296 5,000 -339 Descending Miami Center
Sat 01:13:44 PM 28.0350 -82.4136 North 247 284 4,400 -968 Descending Miami Center
Sat 01:14:46 PM 28.0833 -82.4500 326° Northwest 217 250 3,000 -1,033 Descending Tampa TRACON
Sat 01:15:46 PM 28.0667 -82.5000 249° West 153 176 2,300 -952 Descending Tampa TRACON
Sat 01:16:52 PM 28.0333 -82.5167 204° Southwest 132 152 1,000 -1,000 Descending Tampa TRACON
Sat 01:17:46 PM 28.0000 -82.5333 204° Southwest 124 143 300 -778 Descending Tampa TRACON
Sat 01:19:00 PM 27.9755 -82.5332 190° South  Level Estimated
Sat 01:26:00 PM 27.9755 -82.5332 190° South  Level Estimated

Login

Don't have an account? Register now (free) for customized features, flight alerts, and more!